sensor_id;sensor_type;location;lat;lon;timestamp;temperature;humidity
23637;DHT22;11995;50.842;4.456;2023-06-22T05:29:01;20.10;99.90
23637;DHT22;11995;50.842;4.456;2023-06-22T05:31:29;19.90;99.90
23637;DHT22;11995;50.842;4.456;2023-06-22T05:33:57;19.90;99.90
23637;DHT22;11995;50.842;4.456;2023-06-22T05:36:26;19.60;99.90
23637;DHT22;11995;50.842;4.456;2023-06-22T05:38:55;19.50;99.90
23637;DHT22;11995;50.842;4.456;2023-06-22T05:41:22;19.40;99.90
23637;DHT22;11995;50.842;4.456;2023-06-22T05:43:50;19.30;99.90
23637;DHT22;11995;50.842;4.456;2023-06-22T05:46:18;19.40;99.90
23637;DHT22;11995;50.842;4.456;2023-06-22T05:48:46;19.60;99.90
23637;DHT22;11995;50.842;4.456;2023-06-22T05:51:13;19.50;99.90
23637;DHT22;11995;50.842;4.456;2023-06-22T05:53:41;19.60;99.90
23637;DHT22;11995;50.842;4.456;2023-06-22T05:56:08;19.60;99.90
23637;DHT22;11995;50.842;4.456;2023-06-22T05:58:36;19.80;99.90
23637;DHT22;11995;50.842;4.456;2023-06-22T06:01:03;19.80;99.90
23637;DHT22;11995;50.842;4.456;2023-06-22T06:03:31;20.00;99.90
23637;DHT22;11995;50.842;4.456;2023-06-22T06:05:58;20.00;99.90
23637;DHT22;11995;50.842;4.456;2023-06-22T06:08:30;19.90;99.90
23637;DHT22;11995;50.842;4.456;2023-06-22T06:10:57;20.00;99.90
23637;DHT22;11995;50.842;4.456;2023-06-22T06:13:25;20.10;99.90
23637;DHT22;11995;50.842;4.456;2023-06-22T06:15:52;20.20;99.90
23637;DHT22;11995;50.842;4.456;2023-06-22T06:18:22;20.20;99.90
23637;DHT22;11995;50.842;4.456;2023-06-22T06:20:49;20.20;99.90
23637;DHT22;11995;50.842;4.456;2023-06-22T06:23:17;20.30;99.90
23637;DHT22;11995;50.842;4.456;2023-06-22T06:25:44;20.30;99.90
23637;DHT22;11995;50.842;4.456;2023-06-22T06:28:12;20.30;99.90
23637;DHT22;11995;50.842;4.456;2023-06-22T06:30:39;20.50;99.90
23637;DHT22;11995;50.842;4.456;2023-06-22T06:33:13;20.50;99.90
23637;DHT22;11995;50.842;4.456;2023-06-22T06:35:40;20.50;99.90
23637;DHT22;11995;50.842;4.456;2023-06-22T06:38:08;20.70;99.90
23637;DHT22;11995;50.842;4.456;2023-06-22T06:40:35;20.80;99.90
23637;DHT22;11995;50.842;4.456;2023-06-22T06:43:03;21.00;99.90
23637;DHT22;11995;50.842;4.456;2023-06-22T06:45:31;21.10;99.90
23637;DHT22;11995;50.842;4.456;2023-06-22T06:48:04;21.20;99.90
23637;DHT22;11995;50.842;4.456;2023-06-22T06:50:31;21.30;99.90
23637;DHT22;11995;50.842;4.456;2023-06-22T06:52:59;21.40;99.90
23637;DHT22;11995;50.842;4.456;2023-06-22T06:55:26;21.60;99.90
23637;DHT22;11995;50.842;4.456;2023-06-22T06:57:55;21.60;99.90
23637;DHT22;11995;50.842;4.456;2023-06-22T07:00:23;21.40;99.90
23637;DHT22;11995;50.842;4.456;2023-06-22T07:02:52;21.40;99.90
23637;DHT22;11995;50.842;4.456;2023-06-22T07:05:19;21.40;99.90
23637;DHT22;11995;50.842;4.456;2023-06-22T07:07:47;21.40;99.90
23637;DHT22;11995;50.842;4.456;2023-06-22T07:10:15;21.60;99.90
23637;DHT22;11995;50.842;4.456;2023-06-22T07:12:42;21.70;99.90
23637;DHT22;11995;50.842;4.456;2023-06-22T07:15:10;21.60;99.90
23637;DHT22;11995;50.842;4.456;2023-06-22T07:17:39;21.70;99.90
23637;DHT22;11995;50.842;4.456;2023-06-22T07:20:10;21.50;99.90
23637;DHT22;11995;50.842;4.456;2023-06-22T07:22:42;21.40;99.90
23637;DHT22;11995;50.842;4.456;2023-06-22T07:25:11;21.50;99.90
23637;DHT22;11995;50.842;4.456;2023-06-22T07:28:01;21.50;99.90
23637;DHT22;11995;50.842;4.456;2023-06-22T07:30:16;21.50;99.90
23637;DHT22;11995;50.842;4.456;2023-06-22T07:32:44;21.40;99.90
23637;DHT22;11995;50.842;4.456;2023-06-22T07:35:11;21.40;99.90
23637;DHT22;11995;50.842;4.456;2023-06-22T07:37:39;21.40;99.90
23637;DHT22;11995;50.842;4.456;2023-06-22T07:40:07;21.40;99.90
23637;DHT22;11995;50.842;4.456;2023-06-22T07:42:35;21.40;99.90
23637;DHT22;11995;50.842;4.456;2023-06-22T07:45:03;21.20;99.90
23637;DHT22;11995;50.842;4.456;2023-06-22T07:47:32;21.30;99.90
23637;DHT22;11995;50.842;4.456;2023-06-22T07:50:02;21.30;99.90
23637;DHT22;11995;50.842;4.456;2023-06-22T07:52:29;21.10;99.90
23637;DHT22;11995;50.842;4.456;2023-06-22T07:54:58;21.20;99.90
23637;DHT22;11995;50.842;4.456;2023-06-22T07:57:25;21.40;99.90
23637;DHT22;11995;50.842;4.456;2023-06-22T07:59:55;21.20;99.90
23637;DHT22;11995;50.842;4.456;2023-06-22T08:02:22;21.10;99.90
23637;DHT22;11995;50.842;4.456;2023-06-22T08:04:50;21.10;99.90
23637;DHT22;11995;50.842;4.456;2023-06-22T08:07:17;21.30;99.90
23637;DHT22;11995;50.842;4.456;2023-06-22T08:09:46;21.20;99.90
23637;DHT22;11995;50.842;4.456;2023-06-22T08:12:15;21.10;99.90
23637;DHT22;11995;50.842;4.456;2023-06-22T08:14:44;21.00;99.90
23637;DHT22;11995;50.842;4.456;2023-06-22T08:17:12;21.10;99.90
23637;DHT22;11995;50.842;4.456;2023-06-22T08:19:40;21.00;99.90
23637;DHT22;11995;50.842;4.456;2023-06-22T08:22:07;21.10;99.90
23637;DHT22;11995;50.842;4.456;2023-06-22T08:24:35;21.20;99.90
23637;DHT22;11995;50.842;4.456;2023-06-22T08:27:03;21.00;99.90
23637;DHT22;11995;50.842;4.456;2023-06-22T08:29:30;21.00;99.90
23637;DHT22;11995;50.842;4.456;2023-06-22T08:31:58;20.90;99.90
23637;DHT22;11995;50.842;4.456;2023-06-22T08:34:27;21.10;99.90
23637;DHT22;11995;50.842;4.456;2023-06-22T08:36:55;21.10;99.90
23637;DHT22;11995;50.842;4.456;2023-06-22T08:39:22;21.10;99.90
23637;DHT22;11995;50.842;4.456;2023-06-22T08:41:50;20.90;99.90
23637;DHT22;11995;50.842;4.456;2023-06-22T08:44:18;21.00;99.90
23637;DHT22;11995;50.842;4.456;2023-06-22T08:46:46;21.00;99.90
23637;DHT22;11995;50.842;4.456;2023-06-22T08:49:13;21.00;99.90
23637;DHT22;11995;50.842;4.456;2023-06-22T08:51:41;21.00;99.90
23637;DHT22;11995;50.842;4.456;2023-06-22T08:54:11;20.90;99.90
23637;DHT22;11995;50.842;4.456;2023-06-22T08:56:39;20.90;99.90
23637;DHT22;11995;50.842;4.456;2023-06-22T08:59:07;21.00;99.90
23637;DHT22;11995;50.842;4.456;2023-06-22T09:01:34;21.10;99.90
23637;DHT22;11995;50.842;4.456;2023-06-22T09:04:09;21.20;99.90
23637;DHT22;11995;50.842;4.456;2023-06-22T09:06:37;21.10;99.90
23637;DHT22;11995;50.842;4.456;2023-06-22T09:09:07;21.10;99.90
23637;DHT22;11995;50.842;4.456;2023-06-22T09:11:34;21.00;99.90
23637;DHT22;11995;50.842;4.456;2023-06-22T09:14:02;21.00;99.90
23637;DHT22;11995;50.842;4.456;2023-06-22T09:16:30;21.00;99.90
23637;DHT22;11995;50.842;4.456;2023-06-22T09:18:57;20.90;99.90
23637;DHT22;11995;50.842;4.456;2023-06-22T09:21:25;20.90;99.90
23637;DHT22;11995;50.842;4.456;2023-06-22T09:23:53;21.00;99.90
23637;DHT22;11995;50.842;4.456;2023-06-22T09:26:21;21.00;99.90
23637;DHT22;11995;50.842;4.456;2023-06-22T09:28:50;20.90;99.90
23637;DHT22;11995;50.842;4.456;2023-06-22T09:31:18;21.00;99.90
23637;DHT22;11995;50.842;4.456;2023-06-22T09:33:47;21.00;99.90
23637;DHT22;11995;50.842;4.456;2023-06-22T09:36:15;20.90;99.90
23637;DHT22;11995;50.842;4.456;2023-06-22T09:38:43;20.80;99.90
23637;DHT22;11995;50.842;4.456;2023-06-22T09:41:11;20.60;99.90
23637;DHT22;11995;50.842;4.456;2023-06-22T09:43:38;20.40;99.90
23637;DHT22;11995;50.842;4.456;2023-06-22T09:46:06;20.20;99.90
23637;DHT22;11995;50.842;4.456;2023-06-22T09:48:33;19.90;99.90
23637;DHT22;11995;50.842;4.456;2023-06-22T09:51:01;18.80;99.90
23637;DHT22;11995;50.842;4.456;2023-06-22T09:53:28;18.40;99.90
23637;DHT22;11995;50.842;4.456;2023-06-22T09:55:56;18.20;99.90
23637;DHT22;11995;50.842;4.456;2023-06-22T09:58:24;18.10;99.90
23637;DHT22;11995;50.842;4.456;2023-06-22T10:00:51;18.00;99.90
23637;DHT22;11995;50.842;4.456;2023-06-22T10:03:21;17.70;99.90
23637;DHT22;11995;50.842;4.456;2023-06-22T10:05:49;17.90;99.90
23637;DHT22;11995;50.842;4.456;2023-06-22T10:08:16;17.90;99.90
23637;DHT22;11995;50.842;4.456;2023-06-22T10:10:44;17.70;99.90
23637;DHT22;11995;50.842;4.456;2023-06-22T10:13:11;17.90;99.90
23637;DHT22;11995;50.842;4.456;2023-06-22T10:15:39;17.60;99.90
23637;DHT22;11995;50.842;4.456;2023-06-22T10:18:07;17.60;99.90
23637;DHT22;11995;50.842;4.456;2023-06-22T10:20:34;17.90;99.90
23637;DHT22;11995;50.842;4.456;2023-06-22T10:23:02;17.90;99.90
23637;DHT22;11995;50.842;4.456;2023-06-22T10:25:30;17.90;99.90
23637;DHT22;11995;50.842;4.456;2023-06-22T10:27:59;18.00;99.90
23637;DHT22;11995;50.842;4.456;2023-06-22T10:30:28;18.10;99.90
23637;DHT22;11995;50.842;4.456;2023-06-22T10:32:55;18.20;99.90
23637;DHT22;11995;50.842;4.456;2023-06-22T10:35:23;18.10;99.90
23637;DHT22;11995;50.842;4.456;2023-06-22T10:37:50;18.00;99.90
23637;DHT22;11995;50.842;4.456;2023-06-22T10:40:18;18.10;99.90
23637;DHT22;11995;50.842;4.456;2023-06-22T10:42:46;18.20;99.90
23637;DHT22;11995;50.842;4.456;2023-06-22T10:45:13;18.30;99.90
23637;DHT22;11995;50.842;4.456;2023-06-22T10:47:41;18.20;99.90
23637;DHT22;11995;50.842;4.456;2023-06-22T10:50:09;18.10;99.90
23637;DHT22;11995;50.842;4.456;2023-06-22T10:52:37;18.00;99.90
23637;DHT22;11995;50.842;4.456;2023-06-22T10:55:05;18.00;99.90
23637;DHT22;11995;50.842;4.456;2023-06-22T10:57:32;17.90;99.90
23637;DHT22;11995;50.842;4.456;2023-06-22T11:00:00;17.90;99.90
23637;DHT22;11995;50.842;4.456;2023-06-22T11:02:27;17.80;99.90
23637;DHT22;11995;50.842;4.456;2023-06-22T11:04:55;17.80;99.90
23637;DHT22;11995;50.842;4.456;2023-06-22T11:07:22;18.00;99.90
23637;DHT22;11995;50.842;4.456;2023-06-22T11:09:50;18.00;99.90
23637;DHT22;11995;50.842;4.456;2023-06-22T11:12:17;18.10;99.90
23637;DHT22;11995;50.842;4.456;2023-06-22T11:14:45;18.10;99.90
23637;DHT22;11995;50.842;4.456;2023-06-22T11:17:12;18.30;99.90
23637;DHT22;11995;50.842;4.456;2023-06-22T11:19:40;18.50;99.90
23637;DHT22;11995;50.842;4.456;2023-06-22T11:22:08;18.70;99.90
23637;DHT22;11995;50.842;4.456;2023-06-22T11:24:37;18.70;99.90
23637;DHT22;11995;50.842;4.456;2023-06-22T11:27:05;18.70;99.90
23637;DHT22;11995;50.842;4.456;2023-06-22T11:29:32;18.80;99.90
23637;DHT22;11995;50.842;4.456;2023-06-22T11:32:00;18.70;99.90
23637;DHT22;11995;50.842;4.456;2023-06-22T11:34:28;18.70;99.90
23637;DHT22;11995;50.842;4.456;2023-06-22T11:36:56;18.80;99.90
23637;DHT22;11995;50.842;4.456;2023-06-22T11:39:24;18.80;99.90
23637;DHT22;11995;50.842;4.456;2023-06-22T11:41:53;18.80;99.90
23637;DHT22;11995;50.842;4.456;2023-06-22T11:44:21;18.90;99.90
23637;DHT22;11995;50.842;4.456;2023-06-22T11:46:48;18.90;99.90
23637;DHT22;11995;50.842;4.456;2023-06-22T11:49:16;19.00;99.90
23637;DHT22;11995;50.842;4.456;2023-06-22T11:51:43;18.90;99.90
23637;DHT22;11995;50.842;4.456;2023-06-22T11:54:11;18.70;99.90
23637;DHT22;11995;50.842;4.456;2023-06-22T11:56:38;18.60;99.90
23637;DHT22;11995;50.842;4.456;2023-06-22T11:59:06;18.60;99.90
23637;DHT22;11995;50.842;4.456;2023-06-22T12:01:33;18.60;99.90
23637;DHT22;11995;50.842;4.456;2023-06-22T12:04:01;18.70;99.90
23637;DHT22;11995;50.842;4.456;2023-06-22T12:06:38;18.60;99.90
23637;DHT22;11995;50.842;4.456;2023-06-22T12:09:04;18.60;99.90
23637;DHT22;11995;50.842;4.456;2023-06-22T12:11:32;18.60;99.90
23637;DHT22;11995;50.842;4.456;2023-06-22T12:13:59;18.70;99.90
23637;DHT22;11995;50.842;4.456;2023-06-22T12:16:28;18.70;99.90
23637;DHT22;11995;50.842;4.456;2023-06-22T12:18:56;18.70;99.90
23637;DHT22;11995;50.842;4.456;2023-06-22T12:21:23;18.70;99.90
23637;DHT22;11995;50.842;4.456;2023-06-22T12:23:51;18.70;99.90
23637;DHT22;11995;50.842;4.456;2023-06-22T12:26:18;18.60;99.90
23637;DHT22;11995;50.842;4.456;2023-06-22T12:28:47;18.40;99.90
23637;DHT22;11995;50.842;4.456;2023-06-22T12:31:14;18.30;99.90
23637;DHT22;11995;50.842;4.456;2023-06-22T12:33:42;18.30;99.90
23637;DHT22;11995;50.842;4.456;2023-06-22T12:36:09;18.40;99.90
23637;DHT22;11995;50.842;4.456;2023-06-22T12:38:37;18.40;99.90
23637;DHT22;11995;50.842;4.456;2023-06-22T12:41:04;18.30;99.90
23637;DHT22;11995;50.842;4.456;2023-06-22T12:43:32;18.10;99.90
23637;DHT22;11995;50.842;4.456;2023-06-22T12:46:01;18.10;99.90
23637;DHT22;11995;50.842;4.456;2023-06-22T12:48:28;18.00;99.90
23637;DHT22;11995;50.842;4.456;2023-06-22T12:50:56;18.20;99.90
23637;DHT22;11995;50.842;4.456;2023-06-22T12:53:23;18.10;99.90
23637;DHT22;11995;50.842;4.456;2023-06-22T12:55:52;17.90;99.90
23637;DHT22;11995;50.842;4.456;2023-06-22T12:58:20;18.00;99.90
23637;DHT22;11995;50.842;4.456;2023-06-22T13:00:48;18.00;99.90
23637;DHT22;11995;50.842;4.456;2023-06-22T13:03:16;18.00;99.90
23637;DHT22;11995;50.842;4.456;2023-06-22T13:05:43;18.00;99.90
23637;DHT22;11995;50.842;4.456;2023-06-22T13:08:11;18.00;99.90
23637;DHT22;11995;50.842;4.456;2023-06-22T13:10:38;18.00;99.90
23637;DHT22;11995;50.842;4.456;2023-06-22T13:13:06;17.90;99.90
23637;DHT22;11995;50.842;4.456;2023-06-22T13:15:33;17.80;99.90
23637;DHT22;11995;50.842;4.456;2023-06-22T13:18:01;17.80;99.90
23637;DHT22;11995;50.842;4.456;2023-06-22T13:20:29;17.80;99.90
23637;DHT22;11995;50.842;4.456;2023-06-22T13:22:58;17.80;99.90
23637;DHT22;11995;50.842;4.456;2023-06-22T13:25:25;17.80;99.90
23637;DHT22;11995;50.842;4.456;2023-06-22T13:27:53;17.80;99.90
23637;DHT22;11995;50.842;4.456;2023-06-22T13:30:20;17.80;99.90
23637;DHT22;11995;50.842;4.456;2023-06-22T13:32:48;17.80;99.90
23637;DHT22;11995;50.842;4.456;2023-06-22T13:35:15;17.80;99.90
23637;DHT22;11995;50.842;4.456;2023-06-22T13:37:43;17.80;99.90
23637;DHT22;11995;50.842;4.456;2023-06-22T13:40:10;17.90;99.90
23637;DHT22;11995;50.842;4.456;2023-06-22T13:42:38;17.90;99.90
23637;DHT22;11995;50.842;4.456;2023-06-22T13:45:07;17.70;99.90
23637;DHT22;11995;50.842;4.456;2023-06-22T13:47:34;17.80;99.90
23637;DHT22;11995;50.842;4.456;2023-06-22T13:50:02;17.60;99.90
23637;DHT22;11995;50.842;4.456;2023-06-22T13:52:29;17.50;99.90
23637;DHT22;11995;50.842;4.456;2023-06-22T13:54:57;17.60;99.90
23637;DHT22;11995;50.842;4.456;2023-06-22T13:57:25;17.60;99.90
23637;DHT22;11995;50.842;4.456;2023-06-22T13:59:53;17.50;99.90
23637;DHT22;11995;50.842;4.456;2023-06-22T14:02:20;17.40;99.90
23637;DHT22;11995;50.842;4.456;2023-06-22T14:04:48;17.50;99.90
23637;DHT22;11995;50.842;4.456;2023-06-22T14:07:15;17.60;99.90
23637;DHT22;11995;50.842;4.456;2023-06-22T14:09:43;17.50;99.90
23637;DHT22;11995;50.842;4.456;2023-06-22T14:12:11;17.50;99.90
23637;DHT22;11995;50.842;4.456;2023-06-22T14:14:39;17.50;99.90
23637;DHT22;11995;50.842;4.456;2023-06-22T14:17:06;17.60;99.90
23637;DHT22;11995;50.842;4.456;2023-06-22T14:19:34;17.50;99.90
23637;DHT22;11995;50.842;4.456;2023-06-22T14:22:01;17.40;99.90
23637;DHT22;11995;50.842;4.456;2023-06-22T14:24:29;17.40;99.90
23637;DHT22;11995;50.842;4.456;2023-06-22T14:26:57;17.50;99.90
23637;DHT22;11995;50.842;4.456;2023-06-22T14:29:25;17.30;99.90
23637;DHT22;11995;50.842;4.456;2023-06-22T14:31:53;17.40;99.90
23637;DHT22;11995;50.842;4.456;2023-06-22T14:34:20;17.50;99.90
23637;DHT22;11995;50.842;4.456;2023-06-22T14:36:48;17.50;99.90
23637;DHT22;11995;50.842;4.456;2023-06-22T14:39:15;17.30;99.90
23637;DHT22;11995;50.842;4.456;2023-06-22T14:41:43;17.30;99.90
23637;DHT22;11995;50.842;4.456;2023-06-22T14:44:10;17.40;99.90
23637;DHT22;11995;50.842;4.456;2023-06-22T14:46:38;17.40;99.90
23637;DHT22;11995;50.842;4.456;2023-06-22T14:49:05;17.40;99.90
23637;DHT22;11995;50.842;4.456;2023-06-22T14:51:33;17.40;99.90
23637;DHT22;11995;50.842;4.456;2023-06-22T14:54:01;17.20;99.90
23637;DHT22;11995;50.842;4.456;2023-06-22T14:56:29;17.30;99.90
23637;DHT22;11995;50.842;4.456;2023-06-22T14:58:56;17.50;99.90
23637;DHT22;11995;50.842;4.456;2023-06-22T15:01:23;17.50;99.90
23637;DHT22;11995;50.842;4.456;2023-06-22T15:03:51;17.40;99.90
23637;DHT22;11995;50.842;4.456;2023-06-22T15:06:18;17.70;99.90
23637;DHT22;11995;50.842;4.456;2023-06-22T15:08:46;17.70;99.90
23637;DHT22;11995;50.842;4.456;2023-06-22T15:11:14;17.80;99.90
23637;DHT22;11995;50.842;4.456;2023-06-22T15:13:41;17.80;99.90
23637;DHT22;11995;50.842;4.456;2023-06-22T15:16:09;17.80;99.90
23637;DHT22;11995;50.842;4.456;2023-06-22T15:18:37;17.90;99.90
23637;DHT22;11995;50.842;4.456;2023-06-22T15:21:05;17.90;99.90
23637;DHT22;11995;50.842;4.456;2023-06-22T15:23:33;17.90;99.90
23637;DHT22;11995;50.842;4.456;2023-06-22T15:26:02;18.00;99.90
23637;DHT22;11995;50.842;4.456;2023-06-22T15:28:36;18.00;99.90
23637;DHT22;11995;50.842;4.456;2023-06-22T15:31:04;18.10;99.90
23637;DHT22;11995;50.842;4.456;2023-06-22T15:33:33;18.30;99.90
23637;DHT22;11995;50.842;4.456;2023-06-22T15:36:00;18.40;99.90
23637;DHT22;11995;50.842;4.456;2023-06-22T15:38:30;18.30;99.90
23637;DHT22;11995;50.842;4.456;2023-06-22T15:40:58;18.20;99.90
23637;DHT22;11995;50.842;4.456;2023-06-22T15:43:25;18.30;99.90
23637;DHT22;11995;50.842;4.456;2023-06-22T15:45:53;18.40;99.90
23637;DHT22;11995;50.842;4.456;2023-06-22T15:48:21;18.50;99.90
23637;DHT22;11995;50.842;4.456;2023-06-22T15:50:50;18.60;99.90
23637;DHT22;11995;50.842;4.456;2023-06-22T15:53:17;18.60;99.90
23637;DHT22;11995;50.842;4.456;2023-06-22T15:55:45;18.60;99.90
23637;DHT22;11995;50.842;4.456;2023-06-22T15:58:15;18.50;99.90
23637;DHT22;11995;50.842;4.456;2023-06-22T16:00:43;18.50;99.90
23637;DHT22;11995;50.842;4.456;2023-06-22T16:03:11;18.60;99.90
23637;DHT22;11995;50.842;4.456;2023-06-22T16:05:39;18.60;99.90
23637;DHT22;11995;50.842;4.456;2023-06-22T16:08:09;18.60;99.90
23637;DHT22;11995;50.842;4.456;2023-06-22T16:10:42;18.60;99.90
23637;DHT22;11995;50.842;4.456;2023-06-22T16:13:10;18.50;99.90
23637;DHT22;11995;50.842;4.456;2023-06-22T16:15:37;18.50;99.90
23637;DHT22;11995;50.842;4.456;2023-06-22T16:18:05;18.60;99.90
23637;DHT22;11995;50.842;4.456;2023-06-22T16:20:37;18.60;99.90
23637;DHT22;11995;50.842;4.456;2023-06-22T16:23:04;18.70;99.90
23637;DHT22;11995;50.842;4.456;2023-06-22T16:25:32;18.80;99.90
23637;DHT22;11995;50.842;4.456;2023-06-22T16:27:59;18.90;99.90
23637;DHT22;11995;50.842;4.456;2023-06-22T16:30:27;19.00;99.90
23637;DHT22;11995;50.842;4.456;2023-06-22T16:32:56;19.00;99.90
23637;DHT22;11995;50.842;4.456;2023-06-22T16:35:29;19.00;99.90
23637;DHT22;11995;50.842;4.456;2023-06-22T16:37:59;18.90;99.90
23637;DHT22;11995;50.842;4.456;2023-06-22T16:40:27;18.90;99.90
23637;DHT22;11995;50.842;4.456;2023-06-22T16:42:55;19.00;99.90
23637;DHT22;11995;50.842;4.456;2023-06-22T16:45:24;18.90;99.90
23637;DHT22;11995;50.842;4.456;2023-06-22T16:47:52;19.00;99.90
23637;DHT22;11995;50.842;4.456;2023-06-22T16:50:19;19.00;99.90
23637;DHT22;11995;50.842;4.456;2023-06-22T16:52:47;19.10;99.90
23637;DHT22;11995;50.842;4.456;2023-06-22T16:55:15;19.10;99.90
23637;DHT22;11995;50.842;4.456;2023-06-22T16:57:42;19.00;99.90
23637;DHT22;11995;50.842;4.456;2023-06-22T17:00:10;18.90;99.90
23637;DHT22;11995;50.842;4.456;2023-06-22T17:02:44;18.90;99.90
23637;DHT22;11995;50.842;4.456;2023-06-22T17:05:12;18.90;99.90
23637;DHT22;11995;50.842;4.456;2023-06-22T17:07:48;19.00;99.90
23637;DHT22;11995;50.842;4.456;2023-06-22T17:10:17;18.90;99.90
23637;DHT22;11995;50.842;4.456;2023-06-22T17:12:45;18.90;99.90
23637;DHT22;11995;50.842;4.456;2023-06-22T17:15:13;19.00;99.90
23637;DHT22;11995;50.842;4.456;2023-06-22T17:17:41;18.90;99.90
23637;DHT22;11995;50.842;4.456;2023-06-22T17:20:10;19.00;99.90
23637;DHT22;11995;50.842;4.456;2023-06-22T17:22:38;19.00;99.90
23637;DHT22;11995;50.842;4.456;2023-06-22T17:25:12;19.00;99.90
23637;DHT22;11995;50.842;4.456;2023-06-22T17:27:36;19.00;99.90
23637;DHT22;11995;50.842;4.456;2023-06-22T17:30:11;19.10;99.90
23637;DHT22;11995;50.842;4.456;2023-06-22T17:32:47;19.20;99.90
23637;DHT22;11995;50.842;4.456;2023-06-22T17:35:14;19.40;99.90
23637;DHT22;11995;50.842;4.456;2023-06-22T17:37:50;19.30;99.90
23637;DHT22;11995;50.842;4.456;2023-06-22T17:40:20;19.30;99.90
23637;DHT22;11995;50.842;4.456;2023-06-22T17:42:48;19.30;99.90
23637;DHT22;11995;50.842;4.456;2023-06-22T17:45:20;19.40;99.90
23637;DHT22;11995;50.842;4.456;2023-06-22T17:47:49;19.50;99.90
23637;DHT22;11995;50.842;4.456;2023-06-22T17:50:17;19.50;99.90
23637;DHT22;11995;50.842;4.456;2023-06-22T17:52:52;19.50;99.90
23637;DHT22;11995;50.842;4.456;2023-06-22T17:55:22;19.50;99.90
23637;DHT22;11995;50.842;4.456;2023-06-22T17:57:57;19.50;99.90
23637;DHT22;11995;50.842;4.456;2023-06-22T18:00:26;19.50;99.90
23637;DHT22;11995;50.842;4.456;2023-06-22T18:02:53;19.40;99.90
23637;DHT22;11995;50.842;4.456;2023-06-22T18:05:35;19.40;99.90
23637;DHT22;11995;50.842;4.456;2023-06-22T18:08:05;19.40;99.90
23637;DHT22;11995;50.842;4.456;2023-06-22T18:10:35;19.40;99.90
23637;DHT22;11995;50.842;4.456;2023-06-22T18:13:03;19.50;99.90
23637;DHT22;11995;50.842;4.456;2023-06-22T18:15:32;19.50;99.90
23637;DHT22;11995;50.842;4.456;2023-06-22T18:18:02;19.60;99.90
23637;DHT22;11995;50.842;4.456;2023-06-22T18:20:31;19.60;99.90
23637;DHT22;11995;50.842;4.456;2023-06-22T18:23:00;19.60;99.90
23637;DHT22;11995;50.842;4.456;2023-06-22T18:25:34;19.50;99.90
23637;DHT22;11995;50.842;4.456;2023-06-22T18:28:00;19.60;99.90
23637;DHT22;11995;50.842;4.456;2023-06-22T18:30:28;19.70;99.90
23637;DHT22;11995;50.842;4.456;2023-06-22T18:32:56;19.60;99.90
23637;DHT22;11995;50.842;4.456;2023-06-22T18:35:24;19.60;99.90
23637;DHT22;11995;50.842;4.456;2023-06-22T18:37:52;19.70;99.90
23637;DHT22;11995;50.842;4.456;2023-06-22T18:40:21;19.60;99.90
23637;DHT22;11995;50.842;4.456;2023-06-22T18:42:49;19.70;99.90
23637;DHT22;11995;50.842;4.456;2023-06-22T18:45:24;19.80;99.90
23637;DHT22;11995;50.842;4.456;2023-06-22T18:50:42;19.80;99.90
23637;DHT22;11995;50.842;4.456;2023-06-22T18:56:13;19.80;99.90
23637;DHT22;11995;50.842;4.456;2023-06-22T18:58:41;19.80;99.90
23637;DHT22;11995;50.842;4.456;2023-06-22T19:01:21;19.80;99.90
23637;DHT22;11995;50.842;4.456;2023-06-22T19:03:49;19.70;99.90
23637;DHT22;11995;50.842;4.456;2023-06-22T19:06:56;19.70;99.90
23637;DHT22;11995;50.842;4.456;2023-06-22T19:09:13;19.80;99.90
23637;DHT22;11995;50.842;4.456;2023-06-22T19:11:41;19.70;99.90
23637;DHT22;11995;50.842;4.456;2023-06-22T19:14:08;19.70;99.90
23637;DHT22;11995;50.842;4.456;2023-06-22T19:16:36;19.70;99.90
23637;DHT22;11995;50.842;4.456;2023-06-22T19:19:15;19.60;99.90
23637;DHT22;11995;50.842;4.456;2023-06-22T19:21:42;19.70;99.90
23637;DHT22;11995;50.842;4.456;2023-06-22T19:24:27;19.70;99.90
23637;DHT22;11995;50.842;4.456;2023-06-22T19:26:50;19.60;99.90
23637;DHT22;11995;50.842;4.456;2023-06-22T19:29:16;19.60;99.90
23637;DHT22;11995;50.842;4.456;2023-06-22T19:31:43;19.70;99.90
23637;DHT22;11995;50.842;4.456;2023-06-22T19:34:15;19.60;99.90
23637;DHT22;11995;50.842;4.456;2023-06-22T19:36:42;19.60;99.90
23637;DHT22;11995;50.842;4.456;2023-06-22T19:39:13;19.60;99.90
23637;DHT22;11995;50.842;4.456;2023-06-22T19:41:40;19.40;99.90
23637;DHT22;11995;50.842;4.456;2023-06-22T19:44:08;19.30;99.90
23637;DHT22;11995;50.842;4.456;2023-06-22T19:46:35;19.30;99.90
23637;DHT22;11995;50.842;4.456;2023-06-22T19:49:03;19.30;99.90
23637;DHT22;11995;50.842;4.456;2023-06-22T19:51:34;19.30;99.90
23637;DHT22;11995;50.842;4.456;2023-06-22T19:54:09;19.30;99.90
23637;DHT22;11995;50.842;4.456;2023-06-22T19:56:41;19.30;99.90
23637;DHT22;11995;50.842;4.456;2023-06-22T19:59:13;19.30;99.90
23637;DHT22;11995;50.842;4.456;2023-06-22T20:01:43;19.30;99.90
23637;DHT22;11995;50.842;4.456;2023-06-22T20:04:12;19.30;99.90
23637;DHT22;11995;50.842;4.456;2023-06-22T20:06:39;19.30;99.90
23637;DHT22;11995;50.842;4.456;2023-06-22T20:09:07;19.30;99.90
23637;DHT22;11995;50.842;4.456;2023-06-22T20:11:35;19.30;99.90
23637;DHT22;11995;50.842;4.456;2023-06-22T20:14:03;19.30;99.90
23637;DHT22;11995;50.842;4.456;2023-06-22T20:16:30;19.30;99.90
23637;DHT22;11995;50.842;4.456;2023-06-22T20:19:10;19.30;99.90
23637;DHT22;11995;50.842;4.456;2023-06-22T20:21:35;19.30;99.90
23637;DHT22;11995;50.842;4.456;2023-06-22T20:24:05;19.30;99.90
23637;DHT22;11995;50.842;4.456;2023-06-22T20:26:42;19.20;99.90
23637;DHT22;11995;50.842;4.456;2023-06-22T20:29:27;19.20;99.90
23637;DHT22;11995;50.842;4.456;2023-06-22T20:32:10;19.10;99.90
23637;DHT22;11995;50.842;4.456;2023-06-22T20:34:40;19.10;99.90
23637;DHT22;11995;50.842;4.456;2023-06-22T20:37:16;19.10;99.90
23637;DHT22;11995;50.842;4.456;2023-06-22T20:39:45;19.00;99.90
23637;DHT22;11995;50.842;4.456;2023-06-22T20:42:13;19.00;99.90
23637;DHT22;11995;50.842;4.456;2023-06-22T20:44:40;18.90;99.90
23637;DHT22;11995;50.842;4.456;2023-06-22T20:47:10;18.90;99.90
23637;DHT22;11995;50.842;4.456;2023-06-22T20:49:38;18.90;99.90
23637;DHT22;11995;50.842;4.456;2023-06-22T20:52:06;18.90;99.90
23637;DHT22;11995;50.842;4.456;2023-06-22T20:54:34;18.70;99.90
23637;DHT22;11995;50.842;4.456;2023-06-22T20:57:02;18.70;99.90
23637;DHT22;11995;50.842;4.456;2023-06-22T20:59:30;18.70;99.90
23637;DHT22;11995;50.842;4.456;2023-06-22T21:01:57;18.70;99.90
23637;DHT22;11995;50.842;4.456;2023-06-22T21:04:25;18.60;99.90
23637;DHT22;11995;50.842;4.456;2023-06-22T21:06:52;18.70;99.90
23637;DHT22;11995;50.842;4.456;2023-06-22T21:09:20;18.60;99.90
23637;DHT22;11995;50.842;4.456;2023-06-22T21:11:48;18.60;99.90